sensor_id;sensor_type;location;lat;lon;timestamp;temperature;humidity
39847;DHT22;25517;52.422;10.782;2023-07-31T00:00:00;15.70;99.90
39847;DHT22;25517;52.422;10.782;2023-07-31T00:02:26;15.70;99.90
39847;DHT22;25517;52.422;10.782;2023-07-31T00:04:51;15.70;99.90
39847;DHT22;25517;52.422;10.782;2023-07-31T00:07:17;15.70;99.90
39847;DHT22;25517;52.422;10.782;2023-07-31T00:09:43;15.70;99.90
39847;DHT22;25517;52.422;10.782;2023-07-31T00:12:08;15.70;99.90
39847;DHT22;25517;52.422;10.782;2023-07-31T00:14:34;15.80;99.90
39847;DHT22;25517;52.422;10.782;2023-07-31T00:17:00;15.70;99.90
39847;DHT22;25517;52.422;10.782;2023-07-31T00:19:25;15.70;99.90
39847;DHT22;25517;52.422;10.782;2023-07-31T00:21:50;15.70;99.90
39847;DHT22;25517;52.422;10.782;2023-07-31T00:24:16;15.70;99.90
39847;DHT22;25517;52.422;10.782;2023-07-31T00:26:41;15.70;99.90
39847;DHT22;25517;52.422;10.782;2023-07-31T00:29:07;15.70;99.90
39847;DHT22;25517;52.422;10.782;2023-07-31T00:31:33;15.70;99.90
39847;DHT22;25517;52.422;10.782;2023-07-31T00:33:58;15.70;99.90
39847;DHT22;25517;52.422;10.782;2023-07-31T00:36:23;15.60;99.90
39847;DHT22;25517;52.422;10.782;2023-07-31T00:38:49;15.70;99.90
39847;DHT22;25517;52.422;10.782;2023-07-31T00:41:14;15.60;99.90
39847;DHT22;25517;52.422;10.782;2023-07-31T00:43:40;15.60;99.90
39847;DHT22;25517;52.422;10.782;2023-07-31T00:46:06;15.60;99.90
39847;DHT22;25517;52.422;10.782;2023-07-31T00:48:32;15.60;99.90
39847;DHT22;25517;52.422;10.782;2023-07-31T00:50:59;15.60;99.90
39847;DHT22;25517;52.422;10.782;2023-07-31T00:53:26;15.60;99.90
39847;DHT22;25517;52.422;10.782;2023-07-31T00:55:52;15.60;99.90
39847;DHT22;25517;52.422;10.782;2023-07-31T00:58:18;15.60;99.90
39847;DHT22;25517;52.422;10.782;2023-07-31T01:00:44;15.60;99.90
39847;DHT22;25517;52.422;10.782;2023-07-31T01:03:10;15.60;99.90
39847;DHT22;25517;52.422;10.782;2023-07-31T01:05:57;15.60;99.90
39847;DHT22;25517;52.422;10.782;2023-07-31T01:08:35;15.60;99.90
39847;DHT22;25517;52.422;10.782;2023-07-31T01:11:15;15.60;99.90
39847;DHT22;25517;52.422;10.782;2023-07-31T01:13:44;15.60;99.90
39847;DHT22;25517;52.422;10.782;2023-07-31T01:16:09;15.50;99.90
39847;DHT22;25517;52.422;10.782;2023-07-31T01:18:35;15.60;99.90
39847;DHT22;25517;52.422;10.782;2023-07-31T01:21:13;15.50;99.90
39847;DHT22;25517;52.422;10.782;2023-07-31T01:26:29;15.50;99.90
39847;DHT22;25517;52.422;10.782;2023-07-31T01:31:29;15.40;99.90
39847;DHT22;25517;52.422;10.782;2023-07-31T01:33:58;15.40;99.90
39847;DHT22;25517;52.422;10.782;2023-07-31T01:36:25;15.40;99.90
39847;DHT22;25517;52.422;10.782;2023-07-31T01:38:51;15.40;99.90
39847;DHT22;25517;52.422;10.782;2023-07-31T01:41:17;15.40;99.90
39847;DHT22;25517;52.422;10.782;2023-07-31T01:43:44;15.40;99.90
39847;DHT22;25517;52.422;10.782;2023-07-31T01:46:09;15.40;99.90
39847;DHT22;25517;52.422;10.782;2023-07-31T01:48:35;15.40;99.90
39847;DHT22;25517;52.422;10.782;2023-07-31T01:51:02;15.40;99.90
39847;DHT22;25517;52.422;10.782;2023-07-31T01:53:30;15.40;99.90
39847;DHT22;25517;52.422;10.782;2023-07-31T01:55:55;15.30;99.90
39847;DHT22;25517;52.422;10.782;2023-07-31T01:58:21;15.30;99.90
39847;DHT22;25517;52.422;10.782;2023-07-31T02:00:46;15.40;99.90
39847;DHT22;25517;52.422;10.782;2023-07-31T02:03:12;15.30;99.90
39847;DHT22;25517;52.422;10.782;2023-07-31T02:05:44;15.30;99.90
39847;DHT22;25517;52.422;10.782;2023-07-31T02:08:10;15.40;99.90
39847;DHT22;25517;52.422;10.782;2023-07-31T02:10:35;15.40;99.90
39847;DHT22;25517;52.422;10.782;2023-07-31T02:13:01;15.40;99.90
39847;DHT22;25517;52.422;10.782;2023-07-31T02:15:26;15.40;99.90
39847;DHT22;25517;52.422;10.782;2023-07-31T02:17:51;15.40;99.90
39847;DHT22;25517;52.422;10.782;2023-07-31T02:20:17;15.40;99.90
39847;DHT22;25517;52.422;10.782;2023-07-31T02:22:42;15.40;99.90
39847;DHT22;25517;52.422;10.782;2023-07-31T02:25:08;15.40;99.90
39847;DHT22;25517;52.422;10.782;2023-07-31T02:27:33;15.40;99.90
39847;DHT22;25517;52.422;10.782;2023-07-31T02:29:59;15.40;99.90
39847;DHT22;25517;52.422;10.782;2023-07-31T02:32:24;15.30;99.90
39847;DHT22;25517;52.422;10.782;2023-07-31T02:34:50;15.30;99.90
39847;DHT22;25517;52.422;10.782;2023-07-31T02:37:15;15.30;99.90
39847;DHT22;25517;52.422;10.782;2023-07-31T02:39:41;15.20;99.90
39847;DHT22;25517;52.422;10.782;2023-07-31T02:42:06;15.30;99.90
39847;DHT22;25517;52.422;10.782;2023-07-31T02:44:32;15.20;99.90
39847;DHT22;25517;52.422;10.782;2023-07-31T02:46:57;15.30;99.90
39847;DHT22;25517;52.422;10.782;2023-07-31T02:49:23;15.20;99.90
39847;DHT22;25517;52.422;10.782;2023-07-31T02:51:48;15.20;99.90
39847;DHT22;25517;52.422;10.782;2023-07-31T02:54:14;15.20;99.90
39847;DHT22;25517;52.422;10.782;2023-07-31T02:56:39;15.20;99.90
39847;DHT22;25517;52.422;10.782;2023-07-31T02:59:05;15.20;99.90
39847;DHT22;25517;52.422;10.782;2023-07-31T03:01:31;15.20;99.90
39847;DHT22;25517;52.422;10.782;2023-07-31T03:03:56;15.20;99.90
39847;DHT22;25517;52.422;10.782;2023-07-31T03:06:22;15.20;99.90
39847;DHT22;25517;52.422;10.782;2023-07-31T03:08:47;15.20;99.90
39847;DHT22;25517;52.422;10.782;2023-07-31T03:11:13;15.20;99.90
39847;DHT22;25517;52.422;10.782;2023-07-31T03:13:38;15.20;99.90
39847;DHT22;25517;52.422;10.782;2023-07-31T03:16:04;15.20;99.90
39847;DHT22;25517;52.422;10.782;2023-07-31T03:18:30;15.20;99.90
39847;DHT22;25517;52.422;10.782;2023-07-31T03:20:55;15.20;99.90
39847;DHT22;25517;52.422;10.782;2023-07-31T03:23:21;15.20;99.90
39847;DHT22;25517;52.422;10.782;2023-07-31T03:26:00;15.20;99.90
39847;DHT22;25517;52.422;10.782;2023-07-31T03:28:26;15.20;99.90
39847;DHT22;25517;52.422;10.782;2023-07-31T03:30:52;15.20;99.90
39847;DHT22;25517;52.422;10.782;2023-07-31T03:33:18;15.20;99.90
39847;DHT22;25517;52.422;10.782;2023-07-31T03:35:43;15.20;99.90
39847;DHT22;25517;52.422;10.782;2023-07-31T03:38:09;15.20;99.90
39847;DHT22;25517;52.422;10.782;2023-07-31T03:40:34;15.20;99.90
39847;DHT22;25517;52.422;10.782;2023-07-31T03:43:00;15.20;99.90
39847;DHT22;25517;52.422;10.782;2023-07-31T03:45:25;15.20;99.90
39847;DHT22;25517;52.422;10.782;2023-07-31T03:47:51;15.30;99.90
39847;DHT22;25517;52.422;10.782;2023-07-31T03:50:17;15.20;99.90
39847;DHT22;25517;52.422;10.782;2023-07-31T03:52:42;15.20;99.90
39847;DHT22;25517;52.422;10.782;2023-07-31T03:55:08;15.20;99.90
39847;DHT22;25517;52.422;10.782;2023-07-31T03:57:33;15.20;99.90
39847;DHT22;25517;52.422;10.782;2023-07-31T03:59:59;15.20;99.90
39847;DHT22;25517;52.422;10.782;2023-07-31T04:02:25;15.20;99.90
39847;DHT22;25517;52.422;10.782;2023-07-31T04:04:50;15.20;99.90
39847;DHT22;25517;52.422;10.782;2023-07-31T04:07:16;15.20;99.90
39847;DHT22;25517;52.422;10.782;2023-07-31T04:09:41;15.20;99.90
39847;DHT22;25517;52.422;10.782;2023-07-31T04:12:07;15.20;99.90
39847;DHT22;25517;52.422;10.782;2023-07-31T04:14:32;15.20;99.90
39847;DHT22;25517;52.422;10.782;2023-07-31T04:16:58;15.20;99.90
39847;DHT22;25517;52.422;10.782;2023-07-31T04:19:24;15.20;99.90
39847;DHT22;25517;52.422;10.782;2023-07-31T04:21:49;15.30;99.90
39847;DHT22;25517;52.422;10.782;2023-07-31T04:24:15;15.30;99.90
39847;DHT22;25517;52.422;10.782;2023-07-31T04:26:41;15.30;99.90
39847;DHT22;25517;52.422;10.782;2023-07-31T04:29:06;15.30;99.90
39847;DHT22;25517;52.422;10.782;2023-07-31T04:31:33;15.30;99.90
39847;DHT22;25517;52.422;10.782;2023-07-31T04:33:58;15.30;99.90
39847;DHT22;25517;52.422;10.782;2023-07-31T04:36:24;15.30;99.90
39847;DHT22;25517;52.422;10.782;2023-07-31T04:38:49;15.30;99.90
39847;DHT22;25517;52.422;10.782;2023-07-31T04:41:15;15.30;99.90
39847;DHT22;25517;52.422;10.782;2023-07-31T04:43:40;15.30;99.90
39847;DHT22;25517;52.422;10.782;2023-07-31T04:46:06;15.40;99.90
39847;DHT22;25517;52.422;10.782;2023-07-31T04:48:31;15.30;99.90
39847;DHT22;25517;52.422;10.782;2023-07-31T04:50:57;15.40;99.90
39847;DHT22;25517;52.422;10.782;2023-07-31T04:53:23;15.40;99.90
39847;DHT22;25517;52.422;10.782;2023-07-31T04:55:48;15.40;99.90
39847;DHT22;25517;52.422;10.782;2023-07-31T04:58:14;15.40;99.90
39847;DHT22;25517;52.422;10.782;2023-07-31T05:00:39;15.40;99.90
39847;DHT22;25517;52.422;10.782;2023-07-31T05:03:05;15.40;99.90
39847;DHT22;25517;52.422;10.782;2023-07-31T05:05:31;15.40;99.90
39847;DHT22;25517;52.422;10.782;2023-07-31T05:07:56;15.50;99.90
39847;DHT22;25517;52.422;10.782;2023-07-31T05:10:22;15.50;99.90
39847;DHT22;25517;52.422;10.782;2023-07-31T05:12:48;15.50;99.90
39847;DHT22;25517;52.422;10.782;2023-07-31T05:15:13;15.50;99.90
39847;DHT22;25517;52.422;10.782;2023-07-31T05:17:39;15.50;99.90
39847;DHT22;25517;52.422;10.782;2023-07-31T05:20:24;15.50;99.90
39847;DHT22;25517;52.422;10.782;2023-07-31T05:22:50;15.50;99.90
39847;DHT22;25517;52.422;10.782;2023-07-31T05:25:16;15.50;99.90
39847;DHT22;25517;52.422;10.782;2023-07-31T05:27:42;15.50;99.90
39847;DHT22;25517;52.422;10.782;2023-07-31T05:30:07;15.50;99.90
39847;DHT22;25517;52.422;10.782;2023-07-31T05:32:33;15.50;99.90
39847;DHT22;25517;52.422;10.782;2023-07-31T05:34:59;15.40;99.90
39847;DHT22;25517;52.422;10.782;2023-07-31T05:37:24;15.40;99.90
39847;DHT22;25517;52.422;10.782;2023-07-31T05:39:50;15.30;99.90
39847;DHT22;25517;52.422;10.782;2023-07-31T05:42:16;15.30;99.90
39847;DHT22;25517;52.422;10.782;2023-07-31T05:44:42;15.30;99.90
39847;DHT22;25517;52.422;10.782;2023-07-31T05:47:07;15.20;99.90
39847;DHT22;25517;52.422;10.782;2023-07-31T05:49:33;15.20;99.90
39847;DHT22;25517;52.422;10.782;2023-07-31T05:51:59;15.20;99.90
39847;DHT22;25517;52.422;10.782;2023-07-31T05:54:24;15.30;99.90
39847;DHT22;25517;52.422;10.782;2023-07-31T05:56:50;15.20;99.90
39847;DHT22;25517;52.422;10.782;2023-07-31T05:59:16;15.20;99.90
39847;DHT22;25517;52.422;10.782;2023-07-31T06:01:42;15.10;99.90
39847;DHT22;25517;52.422;10.782;2023-07-31T06:04:07;15.10;99.90
39847;DHT22;25517;52.422;10.782;2023-07-31T06:06:33;15.10;99.90
39847;DHT22;25517;52.422;10.782;2023-07-31T06:08:59;15.10;99.90
39847;DHT22;25517;52.422;10.782;2023-07-31T06:11:24;15.10;99.90
39847;DHT22;25517;52.422;10.782;2023-07-31T06:13:50;15.10;99.90
39847;DHT22;25517;52.422;10.782;2023-07-31T06:16:16;15.10;99.90
39847;DHT22;25517;52.422;10.782;2023-07-31T06:18:42;15.10;99.90
39847;DHT22;25517;52.422;10.782;2023-07-31T06:21:08;15.00;99.90
39847;DHT22;25517;52.422;10.782;2023-07-31T06:23:34;15.00;99.90
39847;DHT22;25517;52.422;10.782;2023-07-31T06:25:59;15.00;99.90
39847;DHT22;25517;52.422;10.782;2023-07-31T06:28:29;15.00;99.90
39847;DHT22;25517;52.422;10.782;2023-07-31T06:30:55;15.00;99.90
39847;DHT22;25517;52.422;10.782;2023-07-31T06:33:20;15.00;99.90
39847;DHT22;25517;52.422;10.782;2023-07-31T06:35:46;15.00;99.90
39847;DHT22;25517;52.422;10.782;2023-07-31T06:38:11;15.10;99.90
39847;DHT22;25517;52.422;10.782;2023-07-31T06:40:37;15.10;99.90
39847;DHT22;25517;52.422;10.782;2023-07-31T06:43:02;15.20;99.90
39847;DHT22;25517;52.422;10.782;2023-07-31T06:45:36;15.30;99.90
39847;DHT22;25517;52.422;10.782;2023-07-31T06:48:03;15.40;99.90
39847;DHT22;25517;52.422;10.782;2023-07-31T06:50:30;15.50;99.90
39847;DHT22;25517;52.422;10.782;2023-07-31T06:52:56;15.60;99.90
39847;DHT22;25517;52.422;10.782;2023-07-31T06:55:23;15.70;99.90
39847;DHT22;25517;52.422;10.782;2023-07-31T06:57:50;15.70;99.90
39847;DHT22;25517;52.422;10.782;2023-07-31T07:00:17;15.80;99.90
39847;DHT22;25517;52.422;10.782;2023-07-31T07:02:43;15.90;99.90
39847;DHT22;25517;52.422;10.782;2023-07-31T07:05:08;15.90;99.90
39847;DHT22;25517;52.422;10.782;2023-07-31T07:07:34;16.10;99.90
39847;DHT22;25517;52.422;10.782;2023-07-31T07:10:00;16.10;99.90
39847;DHT22;25517;52.422;10.782;2023-07-31T07:12:28;16.20;99.90
39847;DHT22;25517;52.422;10.782;2023-07-31T07:14:54;16.20;99.90
39847;DHT22;25517;52.422;10.782;2023-07-31T07:17:20;16.10;99.90
39847;DHT22;25517;52.422;10.782;2023-07-31T07:19:45;16.10;99.90
39847;DHT22;25517;52.422;10.782;2023-07-31T07:22:13;16.10;99.90
39847;DHT22;25517;52.422;10.782;2023-07-31T07:24:38;16.10;99.90
39847;DHT22;25517;52.422;10.782;2023-07-31T07:27:04;16.10;99.90
39847;DHT22;25517;52.422;10.782;2023-07-31T07:29:29;16.10;99.90
39847;DHT22;25517;52.422;10.782;2023-07-31T07:31:55;16.10;99.90
39847;DHT22;25517;52.422;10.782;2023-07-31T07:34:24;16.00;99.90
39847;DHT22;25517;52.422;10.782;2023-07-31T07:36:49;16.10;99.90
39847;DHT22;25517;52.422;10.782;2023-07-31T07:39:15;16.10;99.90
39847;DHT22;25517;52.422;10.782;2023-07-31T07:41:40;16.00;99.90
39847;DHT22;25517;52.422;10.782;2023-07-31T07:44:07;16.00;99.90
39847;DHT22;25517;52.422;10.782;2023-07-31T07:46:32;16.00;99.90
39847;DHT22;25517;52.422;10.782;2023-07-31T07:48:58;16.00;99.90
39847;DHT22;25517;52.422;10.782;2023-07-31T07:51:23;16.00;99.90
39847;DHT22;25517;52.422;10.782;2023-07-31T07:53:49;15.90;99.90
39847;DHT22;25517;52.422;10.782;2023-07-31T07:56:14;15.90;99.90
39847;DHT22;25517;52.422;10.782;2023-07-31T07:58:40;16.00;99.90
39847;DHT22;25517;52.422;10.782;2023-07-31T08:01:05;16.00;99.90
39847;DHT22;25517;52.422;10.782;2023-07-31T08:03:31;16.00;99.90
39847;DHT22;25517;52.422;10.782;2023-07-31T08:06:00;16.10;99.90
39847;DHT22;25517;52.422;10.782;2023-07-31T08:08:26;16.00;99.90
39847;DHT22;25517;52.422;10.782;2023-07-31T08:10:51;16.10;99.90
39847;DHT22;25517;52.422;10.782;2023-07-31T08:13:17;16.10;99.90
39847;DHT22;25517;52.422;10.782;2023-07-31T08:15:42;16.10;99.90
39847;DHT22;25517;52.422;10.782;2023-07-31T08:18:08;16.20;99.90
39847;DHT22;25517;52.422;10.782;2023-07-31T08:20:34;16.40;99.90
39847;DHT22;25517;52.422;10.782;2023-07-31T08:23:00;16.70;99.90
39847;DHT22;25517;52.422;10.782;2023-07-31T08:25:25;17.10;99.90
39847;DHT22;25517;52.422;10.782;2023-07-31T08:27:51;17.20;99.90
39847;DHT22;25517;52.422;10.782;2023-07-31T08:30:18;17.20;99.90
39847;DHT22;25517;52.422;10.782;2023-07-31T08:32:44;17.30;99.90
39847;DHT22;25517;52.422;10.782;2023-07-31T08:35:09;17.50;99.90
39847;DHT22;25517;52.422;10.782;2023-07-31T08:37:35;17.80;99.90
39847;DHT22;25517;52.422;10.782;2023-07-31T08:40:00;18.30;99.90
39847;DHT22;25517;52.422;10.782;2023-07-31T08:42:26;18.50;99.90
39847;DHT22;25517;52.422;10.782;2023-07-31T08:44:52;18.50;99.90
39847;DHT22;25517;52.422;10.782;2023-07-31T08:47:20;18.60;99.90
39847;DHT22;25517;52.422;10.782;2023-07-31T08:49:47;18.50;99.90
39847;DHT22;25517;52.422;10.782;2023-07-31T08:52:13;18.40;99.90
39847;DHT22;25517;52.422;10.782;2023-07-31T08:54:39;18.50;99.90
39847;DHT22;25517;52.422;10.782;2023-07-31T08:57:06;18.80;99.90
39847;DHT22;25517;52.422;10.782;2023-07-31T08:59:34;19.30;99.90
39847;DHT22;25517;52.422;10.782;2023-07-31T09:02:06;19.70;99.90
39847;DHT22;25517;52.422;10.782;2023-07-31T09:04:33;19.70;99.90
39847;DHT22;25517;52.422;10.782;2023-07-31T09:07:03;19.70;99.90
39847;DHT22;25517;52.422;10.782;2023-07-31T09:09:30;19.50;99.90
39847;DHT22;25517;52.422;10.782;2023-07-31T09:11:56;19.20;99.90
39847;DHT22;25517;52.422;10.782;2023-07-31T09:14:26;19.00;99.90
39847;DHT22;25517;52.422;10.782;2023-07-31T09:16:54;18.70;99.90
39847;DHT22;25517;52.422;10.782;2023-07-31T09:19:27;18.70;99.90
39847;DHT22;25517;52.422;10.782;2023-07-31T09:21:53;18.50;99.90
39847;DHT22;25517;52.422;10.782;2023-07-31T09:24:26;18.40;99.90
39847;DHT22;25517;52.422;10.782;2023-07-31T09:26:54;18.30;99.90
39847;DHT22;25517;52.422;10.782;2023-07-31T09:29:24;18.20;99.90
39847;DHT22;25517;52.422;10.782;2023-07-31T09:31:50;18.20;99.90
39847;DHT22;25517;52.422;10.782;2023-07-31T09:34:16;18.10;99.90
39847;DHT22;25517;52.422;10.782;2023-07-31T09:36:51;18.00;99.90
39847;DHT22;25517;52.422;10.782;2023-07-31T09:39:18;17.90;99.90
39847;DHT22;25517;52.422;10.782;2023-07-31T09:41:48;17.90;99.90
39847;DHT22;25517;52.422;10.782;2023-07-31T09:44:18;17.80;99.90
39847;DHT22;25517;52.422;10.782;2023-07-31T09:46:44;17.80;99.90
39847;DHT22;25517;52.422;10.782;2023-07-31T09:49:11;17.80;99.90
39847;DHT22;25517;52.422;10.782;2023-07-31T09:51:41;17.70;99.90
39847;DHT22;25517;52.422;10.782;2023-07-31T09:54:16;17.70;99.90
39847;DHT22;25517;52.422;10.782;2023-07-31T09:56:44;17.80;99.90
39847;DHT22;25517;52.422;10.782;2023-07-31T09:59:18;17.70;99.90
39847;DHT22;25517;52.422;10.782;2023-07-31T10:01:45;17.70;99.90
39847;DHT22;25517;52.422;10.782;2023-07-31T10:04:12;17.60;99.90
39847;DHT22;25517;52.422;10.782;2023-07-31T10:06:39;17.60;99.90
39847;DHT22;25517;52.422;10.782;2023-07-31T10:09:07;17.60;99.90
39847;DHT22;25517;52.422;10.782;2023-07-31T10:11:43;17.70;99.90
39847;DHT22;25517;52.422;10.782;2023-07-31T10:14:15;17.80;99.90
39847;DHT22;25517;52.422;10.782;2023-07-31T10:16:42;18.00;99.90
39847;DHT22;25517;52.422;10.782;2023-07-31T10:19:08;18.00;99.90
39847;DHT22;25517;52.422;10.782;2023-07-31T10:21:35;18.00;99.90
39847;DHT22;25517;52.422;10.782;2023-07-31T10:24:06;17.90;99.90
39847;DHT22;25517;52.422;10.782;2023-07-31T10:26:32;18.00;99.90
39847;DHT22;25517;52.422;10.782;2023-07-31T10:28:59;18.00;99.90
39847;DHT22;25517;52.422;10.782;2023-07-31T10:31:27;18.00;99.90
39847;DHT22;25517;52.422;10.782;2023-07-31T10:33:54;18.00;99.90
39847;DHT22;25517;52.422;10.782;2023-07-31T10:36:20;17.90;99.90
39847;DHT22;25517;52.422;10.782;2023-07-31T10:38:48;18.00;99.90
39847;DHT22;25517;52.422;10.782;2023-07-31T10:41:14;18.10;99.90
39847;DHT22;25517;52.422;10.782;2023-07-31T10:43:39;18.20;99.90
39847;DHT22;25517;52.422;10.782;2023-07-31T10:46:11;18.10;99.90
39847;DHT22;25517;52.422;10.782;2023-07-31T10:48:38;18.20;99.90
39847;DHT22;25517;52.422;10.782;2023-07-31T10:51:11;18.20;99.90
39847;DHT22;25517;52.422;10.782;2023-07-31T10:53:41;18.10;99.90
39847;DHT22;25517;52.422;10.782;2023-07-31T10:56:10;18.20;99.90
39847;DHT22;25517;52.422;10.782;2023-07-31T10:58:45;18.40;99.90
39847;DHT22;25517;52.422;10.782;2023-07-31T11:01:11;18.50;99.90
39847;DHT22;25517;52.422;10.782;2023-07-31T11:03:49;18.80;99.90
39847;DHT22;25517;52.422;10.782;2023-07-31T11:06:17;19.00;99.90
39847;DHT22;25517;52.422;10.782;2023-07-31T11:08:48;19.20;99.90
39847;DHT22;25517;52.422;10.782;2023-07-31T11:11:14;19.50;99.90
39847;DHT22;25517;52.422;10.782;2023-07-31T11:13:46;19.50;99.90
39847;DHT22;25517;52.422;10.782;2023-07-31T11:16:14;19.60;99.90
39847;DHT22;25517;52.422;10.782;2023-07-31T11:18:41;19.70;99.90
39847;DHT22;25517;52.422;10.782;2023-07-31T11:21:08;19.80;99.90
39847;DHT22;25517;52.422;10.782;2023-07-31T11:23:37;19.90;99.90
39847;DHT22;25517;52.422;10.782;2023-07-31T11:26:23;19.90;99.90
39847;DHT22;25517;52.422;10.782;2023-07-31T11:28:50;20.00;99.90
39847;DHT22;25517;52.422;10.782;2023-07-31T11:31:16;20.10;99.90
39847;DHT22;25517;52.422;10.782;2023-07-31T11:33:42;20.20;99.90
39847;DHT22;25517;52.422;10.782;2023-07-31T11:36:14;20.30;99.90
39847;DHT22;25517;52.422;10.782;2023-07-31T11:38:40;20.50;99.90
39847;DHT22;25517;52.422;10.782;2023-07-31T11:41:06;21.20;99.90
39847;DHT22;25517;52.422;10.782;2023-07-31T11:43:32;22.50;99.90
39847;DHT22;25517;52.422;10.782;2023-07-31T11:45:59;23.00;99.90
39847;DHT22;25517;52.422;10.782;2023-07-31T11:48:32;23.30;99.90
39847;DHT22;25517;52.422;10.782;2023-07-31T11:51:00;23.00;99.90
39847;DHT22;25517;52.422;10.782;2023-07-31T11:56:09;23.20;99.90
39847;DHT22;25517;52.422;10.782;2023-07-31T11:58:37;22.90;99.90
39847;DHT22;25517;52.422;10.782;2023-07-31T12:01:03;22.80;99.90
39847;DHT22;25517;52.422;10.782;2023-07-31T12:03:29;22.60;99.90
39847;DHT22;25517;52.422;10.782;2023-07-31T12:05:55;22.50;99.90
39847;DHT22;25517;52.422;10.782;2023-07-31T12:08:22;22.60;99.90
39847;DHT22;25517;52.422;10.782;2023-07-31T12:10:50;22.40;99.90
39847;DHT22;25517;52.422;10.782;2023-07-31T12:13:26;22.30;99.90
39847;DHT22;25517;52.422;10.782;2023-07-31T12:15:59;22.00;99.90
39847;DHT22;25517;52.422;10.782;2023-07-31T12:18:29;21.70;99.90
39847;DHT22;25517;52.422;10.782;2023-07-31T12:21:00;21.40;99.90
39847;DHT22;25517;52.422;10.782;2023-07-31T12:23:31;21.30;99.90
39847;DHT22;25517;52.422;10.782;2023-07-31T12:26:07;21.20;99.90
39847;DHT22;25517;52.422;10.782;2023-07-31T12:31:17;20.90;99.90
39847;DHT22;25517;52.422;10.782;2023-07-31T12:33:43;20.70;99.90
39847;DHT22;25517;52.422;10.782;2023-07-31T12:36:11;20.80;99.90
39847;DHT22;25517;52.422;10.782;2023-07-31T12:38:37;20.70;99.90
39847;DHT22;25517;52.422;10.782;2023-07-31T12:41:02;20.70;99.90
39847;DHT22;25517;52.422;10.782;2023-07-31T12:43:28;20.70;99.90
39847;DHT22;25517;52.422;10.782;2023-07-31T12:45:54;20.80;99.90
39847;DHT22;25517;52.422;10.782;2023-07-31T12:48:21;20.60;99.90
39847;DHT22;25517;52.422;10.782;2023-07-31T12:50:47;20.60;99.90
39847;DHT22;25517;52.422;10.782;2023-07-31T12:53:13;20.60;99.90
39847;DHT22;25517;52.422;10.782;2023-07-31T12:55:38;20.60;99.90
39847;DHT22;25517;52.422;10.782;2023-07-31T12:58:04;20.60;99.90
39847;DHT22;25517;52.422;10.782;2023-07-31T13:00:29;20.50;99.90
39847;DHT22;25517;52.422;10.782;2023-07-31T13:02:55;20.50;99.90
39847;DHT22;25517;52.422;10.782;2023-07-31T13:05:21;20.40;99.90
39847;DHT22;25517;52.422;10.782;2023-07-31T13:07:47;20.50;99.90
39847;DHT22;25517;52.422;10.782;2023-07-31T13:10:12;20.60;99.90
39847;DHT22;25517;52.422;10.782;2023-07-31T13:12:38;20.70;99.90
39847;DHT22;25517;52.422;10.782;2023-07-31T13:15:05;20.70;99.90
39847;DHT22;25517;52.422;10.782;2023-07-31T13:17:30;20.70;99.90
39847;DHT22;25517;52.422;10.782;2023-07-31T13:19:56;20.70;99.90
39847;DHT22;25517;52.422;10.782;2023-07-31T13:22:22;20.60;99.90
39847;DHT22;25517;52.422;10.782;2023-07-31T13:24:47;20.60;99.90
39847;DHT22;25517;52.422;10.782;2023-07-31T13:27:13;20.60;99.90
39847;DHT22;25517;52.422;10.782;2023-07-31T13:29:42;20.70;99.90
39847;DHT22;25517;52.422;10.782;2023-07-31T13:32:07;20.60;99.90
39847;DHT22;25517;52.422;10.782;2023-07-31T13:34:33;20.70;99.90
39847;DHT22;25517;52.422;10.782;2023-07-31T13:36:58;20.70;99.90
39847;DHT22;25517;52.422;10.782;2023-07-31T13:39:24;20.60;99.90
39847;DHT22;25517;52.422;10.782;2023-07-31T13:41:49;20.40;99.90
39847;DHT22;25517;52.422;10.782;2023-07-31T13:44:15;20.30;99.90
39847;DHT22;25517;52.422;10.782;2023-07-31T13:46:40;20.10;99.90
39847;DHT22;25517;52.422;10.782;2023-07-31T13:49:05;20.00;99.90
39847;DHT22;25517;52.422;10.782;2023-07-31T13:51:31;19.80;99.90
39847;DHT22;25517;52.422;10.782;2023-07-31T13:53:56;19.60;99.90
39847;DHT22;25517;52.422;10.782;2023-07-31T13:56:22;19.40;99.90
39847;DHT22;25517;52.422;10.782;2023-07-31T13:58:47;19.40;99.90
39847;DHT22;25517;52.422;10.782;2023-07-31T14:01:13;19.40;99.90
39847;DHT22;25517;52.422;10.782;2023-07-31T14:03:38;19.40;99.90
39847;DHT22;25517;52.422;10.782;2023-07-31T14:06:04;19.40;99.90
39847;DHT22;25517;52.422;10.782;2023-07-31T14:08:29;19.40;99.90
39847;DHT22;25517;52.422;10.782;2023-07-31T14:10:55;19.30;99.90
39847;DHT22;25517;52.422;10.782;2023-07-31T14:13:21;19.30;99.90
39847;DHT22;25517;52.422;10.782;2023-07-31T14:15:46;19.30;99.90
39847;DHT22;25517;52.422;10.782;2023-07-31T14:18:12;19.30;99.90
39847;DHT22;25517;52.422;10.782;2023-07-31T14:20:37;19.30;99.90
39847;DHT22;25517;52.422;10.782;2023-07-31T14:23:03;19.30;99.90
39847;DHT22;25517;52.422;10.782;2023-07-31T14:25:29;19.30;99.90
39847;DHT22;25517;52.422;10.782;2023-07-31T14:27:54;19.40;99.90
39847;DHT22;25517;52.422;10.782;2023-07-31T14:30:20;19.30;99.90
39847;DHT22;25517;52.422;10.782;2023-07-31T14:32:46;19.40;99.90
39847;DHT22;25517;52.422;10.782;2023-07-31T14:35:12;19.50;99.90
39847;DHT22;25517;52.422;10.782;2023-07-31T14:37:39;19.70;99.90
39847;DHT22;25517;52.422;10.782;2023-07-31T14:40:06;19.70;99.90
39847;DHT22;25517;52.422;10.782;2023-07-31T14:42:32;19.80;99.90
39847;DHT22;25517;52.422;10.782;2023-07-31T14:44:58;19.70;99.90
39847;DHT22;25517;52.422;10.782;2023-07-31T14:47:23;19.70;99.90
39847;DHT22;25517;52.422;10.782;2023-07-31T14:49:48;19.60;99.90
39847;DHT22;25517;52.422;10.782;2023-07-31T14:52:14;19.60;99.90
39847;DHT22;25517;52.422;10.782;2023-07-31T14:54:40;19.50;99.90
39847;DHT22;25517;52.422;10.782;2023-07-31T14:57:05;19.50;99.90
39847;DHT22;25517;52.422;10.782;2023-07-31T14:59:31;19.50;99.90
39847;DHT22;25517;52.422;10.782;2023-07-31T15:01:56;19.50;99.90
39847;DHT22;25517;52.422;10.782;2023-07-31T15:04:22;19.60;99.90
39847;DHT22;25517;52.422;10.782;2023-07-31T15:06:49;19.50;99.90
39847;DHT22;25517;52.422;10.782;2023-07-31T15:09:15;19.60;99.90
39847;DHT22;25517;52.422;10.782;2023-07-31T15:11:40;19.70;99.90
39847;DHT22;25517;52.422;10.782;2023-07-31T15:14:06;19.80;99.90
39847;DHT22;25517;52.422;10.782;2023-07-31T15:16:31;20.00;99.90
39847;DHT22;25517;52.422;10.782;2023-07-31T15:18:57;20.10;99.90
39847;DHT22;25517;52.422;10.782;2023-07-31T15:21:22;20.10;99.90